sensor_id;sensor_type;location;lat;lon;timestamp;P1;durP1;ratioP1;P2;durP2;ratioP2
69417;SDS011;56610;48.872;2.400;2022-11-20T00:01:08;6.55;;;2.67;;
69417;SDS011;56610;48.872;2.400;2022-11-20T00:03:35;4.50;;;2.22;;
69417;SDS011;56610;48.872;2.400;2022-11-20T00:06:02;4.85;;;2.10;;
69417;SDS011;56610;48.872;2.400;2022-11-20T00:08:29;4.65;;;2.20;;
69417;SDS011;56610;48.872;2.400;2022-11-20T00:10:54;5.15;;;2.60;;
69417;SDS011;56610;48.872;2.400;2022-11-20T00:13:20;5.68;;;2.40;;
69417;SDS011;56610;48.872;2.400;2022-11-20T00:15:46;4.13;;;2.30;;
69417;SDS011;56610;48.872;2.400;2022-11-20T00:18:11;5.03;;;2.58;;
69417;SDS011;56610;48.872;2.400;2022-11-20T00:20:37;5.40;;;2.30;;
69417;SDS011;56610;48.872;2.400;2022-11-20T00:23:03;3.67;;;2.22;;
69417;SDS011;56610;48.872;2.400;2022-11-20T00:25:28;3.50;;;1.70;;
69417;SDS011;56610;48.872;2.400;2022-11-20T00:27:54;3.85;;;2.15;;
69417;SDS011;56610;48.872;2.400;2022-11-20T00:30:20;4.47;;;1.92;;
69417;SDS011;56610;48.872;2.400;2022-11-20T00:32:48;4.15;;;2.08;;
69417;SDS011;56610;48.872;2.400;2022-11-20T00:35:14;5.60;;;2.42;;
69417;SDS011;56610;48.872;2.400;2022-11-20T00:37:39;4.45;;;2.05;;
69417;SDS011;56610;48.872;2.400;2022-11-20T00:40:05;6.15;;;2.10;;
69417;SDS011;56610;48.872;2.400;2022-11-20T00:42:31;4.57;;;2.00;;
69417;SDS011;56610;48.872;2.400;2022-11-20T00:44:57;4.00;;;1.83;;
69417;SDS011;56610;48.872;2.400;2022-11-20T00:47:23;3.63;;;2.10;;
69417;SDS011;56610;48.872;2.400;2022-11-20T00:49:49;4.82;;;1.92;;
69417;SDS011;56610;48.872;2.400;2022-11-20T00:52:14;4.25;;;2.65;;
69417;SDS011;56610;48.872;2.400;2022-11-20T00:54:40;3.83;;;2.10;;
69417;SDS011;56610;48.872;2.400;2022-11-20T00:57:05;4.88;;;2.30;;
69417;SDS011;56610;48.872;2.400;2022-11-20T00:59:31;4.00;;;2.05;;
69417;SDS011;56610;48.872;2.400;2022-11-20T01:01:56;5.60;;;2.58;;
69417;SDS011;56610;48.872;2.400;2022-11-20T01:04:22;3.78;;;2.22;;
69417;SDS011;56610;48.872;2.400;2022-11-20T01:06:48;4.13;;;2.20;;
69417;SDS011;56610;48.872;2.400;2022-11-20T01:09:13;5.60;;;2.60;;
69417;SDS011;56610;48.872;2.400;2022-11-20T01:11:43;4.45;;;2.40;;
69417;SDS011;56610;48.872;2.400;2022-11-20T01:14:11;4.90;;;2.10;;
69417;SDS011;56610;48.872;2.400;2022-11-20T01:16:40;5.15;;;1.83;;
69417;SDS011;56610;48.872;2.400;2022-11-20T01:19:12;4.97;;;2.13;;
69417;SDS011;56610;48.872;2.400;2022-11-20T01:21:41;3.30;;;1.60;;
69417;SDS011;56610;48.872;2.400;2022-11-20T01:24:10;4.15;;;1.58;;
69417;SDS011;56610;48.872;2.400;2022-11-20T01:26:38;4.35;;;1.65;;
69417;SDS011;56610;48.872;2.400;2022-11-20T01:29:05;5.25;;;2.20;;
69417;SDS011;56610;48.872;2.400;2022-11-20T01:31:34;4.13;;;1.92;;
69417;SDS011;56610;48.872;2.400;2022-11-20T01:34:02;5.18;;;1.83;;
69417;SDS011;56610;48.872;2.400;2022-11-20T01:36:31;5.53;;;2.00;;
69417;SDS011;56610;48.872;2.400;2022-11-20T01:38:59;3.60;;;1.88;;
69417;SDS011;56610;48.872;2.400;2022-11-20T01:41:28;3.33;;;1.80;;
69417;SDS011;56610;48.872;2.400;2022-11-20T01:44:14;3.50;;;1.50;;
69417;SDS011;56610;48.872;2.400;2022-11-20T01:46:44;4.38;;;1.77;;
69417;SDS011;56610;48.872;2.400;2022-11-20T01:49:40;2.90;;;1.42;;
69417;SDS011;56610;48.872;2.400;2022-11-20T01:55:09;4.20;;;1.90;;
69417;SDS011;56610;48.872;2.400;2022-11-20T01:57:37;4.03;;;1.70;;
69417;SDS011;56610;48.872;2.400;2022-11-20T02:00:08;4.10;;;1.73;;
69417;SDS011;56610;48.872;2.400;2022-11-20T02:02:36;4.05;;;1.80;;
69417;SDS011;56610;48.872;2.400;2022-11-20T02:05:09;5.05;;;1.80;;
69417;SDS011;56610;48.872;2.400;2022-11-20T02:07:42;4.57;;;1.77;;
69417;SDS011;56610;48.872;2.400;2022-11-20T02:10:09;3.80;;;1.70;;
69417;SDS011;56610;48.872;2.400;2022-11-20T02:12:35;3.53;;;1.77;;
69417;SDS011;56610;48.872;2.400;2022-11-20T02:15:20;2.83;;;1.60;;
69417;SDS011;56610;48.872;2.400;2022-11-20T02:17:45;2.55;;;1.65;;
69417;SDS011;56610;48.872;2.400;2022-11-20T02:20:14;3.95;;;1.98;;
69417;SDS011;56610;48.872;2.400;2022-11-20T02:22:48;5.60;;;1.90;;
69417;SDS011;56610;48.872;2.400;2022-11-20T02:28:06;2.67;;;1.55;;
69417;SDS011;56610;48.872;2.400;2022-11-20T02:30:32;4.90;;;1.70;;
69417;SDS011;56610;48.872;2.400;2022-11-20T02:32:58;5.03;;;1.70;;
69417;SDS011;56610;48.872;2.400;2022-11-20T02:37:53;3.70;;;1.60;;
69417;SDS011;56610;48.872;2.400;2022-11-20T02:40:20;4.25;;;1.60;;
69417;SDS011;56610;48.872;2.400;2022-11-20T02:42:46;5.15;;;1.60;;
69417;SDS011;56610;48.872;2.400;2022-11-20T02:45:12;4.43;;;1.70;;
69417;SDS011;56610;48.872;2.400;2022-11-20T02:47:38;4.18;;;1.75;;
69417;SDS011;56610;48.872;2.400;2022-11-20T02:50:04;4.70;;;1.52;;
69417;SDS011;56610;48.872;2.400;2022-11-20T02:52:30;3.35;;;1.45;;
69417;SDS011;56610;48.872;2.400;2022-11-20T02:54:56;3.35;;;1.30;;
69417;SDS011;56610;48.872;2.400;2022-11-20T02:57:22;3.97;;;1.40;;
69417;SDS011;56610;48.872;2.400;2022-11-20T02:59:47;2.63;;;1.30;;
69417;SDS011;56610;48.872;2.400;2022-11-20T03:02:13;4.63;;;1.58;;
69417;SDS011;56610;48.872;2.400;2022-11-20T03:04:38;3.70;;;1.52;;
69417;SDS011;56610;48.872;2.400;2022-11-20T03:07:04;2.95;;;1.92;;
69417;SDS011;56610;48.872;2.400;2022-11-20T03:09:31;4.07;;;1.70;;
69417;SDS011;56610;48.872;2.400;2022-11-20T03:11:58;4.65;;;1.60;;
69417;SDS011;56610;48.872;2.400;2022-11-20T03:14:27;3.28;;;1.83;;
69417;SDS011;56610;48.872;2.400;2022-11-20T03:16:53;3.97;;;1.95;;
69417;SDS011;56610;48.872;2.400;2022-11-20T03:19:18;4.78;;;1.48;;
69417;SDS011;56610;48.872;2.400;2022-11-20T03:21:44;4.18;;;1.60;;
69417;SDS011;56610;48.872;2.400;2022-11-20T03:24:10;3.47;;;1.42;;
69417;SDS011;56610;48.872;2.400;2022-11-20T03:26:35;3.70;;;1.55;;
69417;SDS011;56610;48.872;2.400;2022-11-20T03:29:02;3.88;;;2.13;;
69417;SDS011;56610;48.872;2.400;2022-11-20T03:31:30;4.40;;;1.80;;
69417;SDS011;56610;48.872;2.400;2022-11-20T03:33:57;4.57;;;2.00;;
69417;SDS011;56610;48.872;2.400;2022-11-20T03:36:24;3.97;;;1.67;;
69417;SDS011;56610;48.872;2.400;2022-11-20T03:38:50;3.88;;;1.50;;
69417;SDS011;56610;48.872;2.400;2022-11-20T03:41:24;4.38;;;1.33;;
69417;SDS011;56610;48.872;2.400;2022-11-20T03:43:58;3.78;;;1.60;;
69417;SDS011;56610;48.872;2.400;2022-11-20T03:46:26;2.38;;;1.45;;
69417;SDS011;56610;48.872;2.400;2022-11-20T03:48:53;3.28;;;1.25;;
69417;SDS011;56610;48.872;2.400;2022-11-20T03:51:22;2.90;;;1.67;;
69417;SDS011;56610;48.872;2.400;2022-11-20T03:53:50;4.88;;;1.70;;
69417;SDS011;56610;48.872;2.400;2022-11-20T03:56:18;4.60;;;2.10;;
69417;SDS011;56610;48.872;2.400;2022-11-20T03:58:46;3.63;;;1.40;;
69417;SDS011;56610;48.872;2.400;2022-11-20T04:01:12;3.28;;;1.60;;
69417;SDS011;56610;48.872;2.400;2022-11-20T04:03:43;4.88;;;1.60;;
69417;SDS011;56610;48.872;2.400;2022-11-20T04:06:17;2.30;;;1.30;;
69417;SDS011;56610;48.872;2.400;2022-11-20T04:08:44;3.17;;;1.30;;
69417;SDS011;56610;48.872;2.400;2022-11-20T04:13:37;3.30;;;1.42;;
69417;SDS011;56610;48.872;2.400;2022-11-20T04:16:03;2.63;;;1.33;;
69417;SDS011;56610;48.872;2.400;2022-11-20T04:18:30;2.97;;;1.50;;
69417;SDS011;56610;48.872;2.400;2022-11-20T04:20:56;4.07;;;1.40;;
69417;SDS011;56610;48.872;2.400;2022-11-20T04:23:23;3.38;;;1.77;;
69417;SDS011;56610;48.872;2.400;2022-11-20T04:25:48;4.18;;;1.40;;
69417;SDS011;56610;48.872;2.400;2022-11-20T04:28:14;3.70;;;1.70;;
69417;SDS011;56610;48.872;2.400;2022-11-20T04:30:40;2.83;;;1.60;;
69417;SDS011;56610;48.872;2.400;2022-11-20T04:33:05;3.78;;;1.50;;
69417;SDS011;56610;48.872;2.400;2022-11-20T04:35:33;2.80;;;1.40;;
69417;SDS011;56610;48.872;2.400;2022-11-20T04:37:59;2.67;;;1.75;;
69417;SDS011;56610;48.872;2.400;2022-11-20T04:40:25;4.25;;;1.60;;
69417;SDS011;56610;48.872;2.400;2022-11-20T04:42:52;4.40;;;2.05;;
69417;SDS011;56610;48.872;2.400;2022-11-20T04:45:17;2.70;;;1.42;;
69417;SDS011;56610;48.872;2.400;2022-11-20T04:47:43;4.38;;;2.17;;
69417;SDS011;56610;48.872;2.400;2022-11-20T04:50:08;4.43;;;2.00;;
69417;SDS011;56610;48.872;2.400;2022-11-20T04:52:34;4.68;;;2.10;;
69417;SDS011;56610;48.872;2.400;2022-11-20T04:55:02;3.65;;;1.80;;
69417;SDS011;56610;48.872;2.400;2022-11-20T04:57:28;4.50;;;2.00;;
69417;SDS011;56610;48.872;2.400;2022-11-20T04:59:54;4.25;;;2.03;;
69417;SDS011;56610;48.872;2.400;2022-11-20T05:02:20;2.47;;;1.80;;
69417;SDS011;56610;48.872;2.400;2022-11-20T05:04:46;3.20;;;1.85;;
69417;SDS011;56610;48.872;2.400;2022-11-20T05:07:11;3.13;;;1.98;;
69417;SDS011;56610;48.872;2.400;2022-11-20T05:09:37;4.03;;;1.90;;
69417;SDS011;56610;48.872;2.400;2022-11-20T05:12:03;5.35;;;2.00;;
69417;SDS011;56610;48.872;2.400;2022-11-20T05:14:29;4.75;;;1.80;;
69417;SDS011;56610;48.872;2.400;2022-11-20T05:16:54;4.45;;;2.22;;
69417;SDS011;56610;48.872;2.400;2022-11-20T05:19:20;4.07;;;2.10;;
69417;SDS011;56610;48.872;2.400;2022-11-20T05:21:46;2.72;;;2.20;;
69417;SDS011;56610;48.872;2.400;2022-11-20T05:24:11;6.15;;;2.50;;
69417;SDS011;56610;48.872;2.400;2022-11-20T05:26:37;4.65;;;2.20;;
69417;SDS011;56610;48.872;2.400;2022-11-20T05:29:02;4.32;;;2.10;;
69417;SDS011;56610;48.872;2.400;2022-11-20T05:31:28;3.30;;;1.77;;
69417;SDS011;56610;48.872;2.400;2022-11-20T05:33:55;2.75;;;2.00;;
69417;SDS011;56610;48.872;2.400;2022-11-20T05:36:21;4.13;;;2.20;;
69417;SDS011;56610;48.872;2.400;2022-11-20T05:38:47;3.92;;;2.15;;
69417;SDS011;56610;48.872;2.400;2022-11-20T05:41:17;4.55;;;2.15;;
69417;SDS011;56610;48.872;2.400;2022-11-20T05:43:45;4.47;;;2.00;;
69417;SDS011;56610;48.872;2.400;2022-11-20T05:46:12;5.23;;;2.73;;
69417;SDS011;56610;48.872;2.400;2022-11-20T05:48:39;2.80;;;1.70;;
69417;SDS011;56610;48.872;2.400;2022-11-20T05:51:07;4.20;;;1.83;;
69417;SDS011;56610;48.872;2.400;2022-11-20T05:56:01;3.65;;;1.55;;
69417;SDS011;56610;48.872;2.400;2022-11-20T05:58:29;4.22;;;1.50;;
69417;SDS011;56610;48.872;2.400;2022-11-20T06:01:02;3.25;;;1.50;;
69417;SDS011;56610;48.872;2.400;2022-11-20T06:03:32;2.88;;;1.60;;
69417;SDS011;56610;48.872;2.400;2022-11-20T06:06:01;3.58;;;1.48;;
69417;SDS011;56610;48.872;2.400;2022-11-20T06:08:29;6.30;;;1.55;;
69417;SDS011;56610;48.872;2.400;2022-11-20T06:10:55;3.83;;;1.90;;
69417;SDS011;56610;48.872;2.400;2022-11-20T06:13:20;5.65;;;2.13;;
69417;SDS011;56610;48.872;2.400;2022-11-20T06:15:50;3.00;;;1.50;;
69417;SDS011;56610;48.872;2.400;2022-11-20T06:18:16;5.13;;;1.90;;
69417;SDS011;56610;48.872;2.400;2022-11-20T06:20:42;3.33;;;1.73;;
69417;SDS011;56610;48.872;2.400;2022-11-20T06:23:08;6.00;;;2.38;;
69417;SDS011;56610;48.872;2.400;2022-11-20T06:26:04;6.90;;;2.50;;
69417;SDS011;56610;48.872;2.400;2022-11-20T06:28:38;4.32;;;2.13;;
69417;SDS011;56610;48.872;2.400;2022-11-20T06:31:04;3.88;;;2.45;;
69417;SDS011;56610;48.872;2.400;2022-11-20T06:33:44;4.97;;;2.42;;
69417;SDS011;56610;48.872;2.400;2022-11-20T06:36:10;5.88;;;2.75;;
69417;SDS011;56610;48.872;2.400;2022-11-20T06:38:38;4.47;;;2.30;;
69417;SDS011;56610;48.872;2.400;2022-11-20T06:41:08;3.63;;;2.15;;
69417;SDS011;56610;48.872;2.400;2022-11-20T06:43:36;3.50;;;1.95;;
69417;SDS011;56610;48.872;2.400;2022-11-20T06:46:02;4.43;;;2.25;;
69417;SDS011;56610;48.872;2.400;2022-11-20T06:48:28;5.15;;;2.42;;
69417;SDS011;56610;48.872;2.400;2022-11-20T06:50:54;4.07;;;2.75;;
69417;SDS011;56610;48.872;2.400;2022-11-20T06:53:22;4.05;;;2.20;;
69417;SDS011;56610;48.872;2.400;2022-11-20T06:55:48;5.65;;;2.47;;
69417;SDS011;56610;48.872;2.400;2022-11-20T06:58:21;3.83;;;2.45;;
69417;SDS011;56610;48.872;2.400;2022-11-20T07:00:51;5.80;;;2.45;;
69417;SDS011;56610;48.872;2.400;2022-11-20T07:05:56;4.72;;;3.20;;
69417;SDS011;56610;48.872;2.400;2022-11-20T07:08:22;5.60;;;2.67;;
69417;SDS011;56610;48.872;2.400;2022-11-20T07:10:48;4.22;;;2.42;;
69417;SDS011;56610;48.872;2.400;2022-11-20T07:13:14;5.18;;;2.72;;
69417;SDS011;56610;48.872;2.400;2022-11-20T07:15:39;4.45;;;2.72;;
69417;SDS011;56610;48.872;2.400;2022-11-20T07:18:05;6.88;;;2.97;;
69417;SDS011;56610;48.872;2.400;2022-11-20T07:20:31;3.83;;;2.40;;
69417;SDS011;56610;48.872;2.400;2022-11-20T07:22:57;5.00;;;2.42;;
69417;SDS011;56610;48.872;2.400;2022-11-20T07:25:25;4.90;;;2.78;;
69417;SDS011;56610;48.872;2.400;2022-11-20T07:27:52;5.30;;;2.75;;
69417;SDS011;56610;48.872;2.400;2022-11-20T07:30:21;4.70;;;2.60;;
69417;SDS011;56610;48.872;2.400;2022-11-20T07:32:47;4.07;;;2.70;;
69417;SDS011;56610;48.872;2.400;2022-11-20T07:35:16;4.95;;;2.63;;
69417;SDS011;56610;48.872;2.400;2022-11-20T07:37:42;3.42;;;2.30;;
69417;SDS011;56610;48.872;2.400;2022-11-20T07:40:08;4.43;;;2.30;;
69417;SDS011;56610;48.872;2.400;2022-11-20T07:47:34;4.97;;;2.20;;
69417;SDS011;56610;48.872;2.400;2022-11-20T07:50:01;3.25;;;1.92;;
69417;SDS011;56610;48.872;2.400;2022-11-20T07:52:28;4.90;;;2.22;;
69417;SDS011;56610;48.872;2.400;2022-11-20T07:54:56;4.70;;;2.35;;
69417;SDS011;56610;48.872;2.400;2022-11-20T07:59:47;7.15;;;3.10;;
69417;SDS011;56610;48.872;2.400;2022-11-20T08:02:13;5.13;;;2.00;;
69417;SDS011;56610;48.872;2.400;2022-11-20T08:04:38;5.15;;;2.03;;
69417;SDS011;56610;48.872;2.400;2022-11-20T08:07:04;4.22;;;2.40;;
69417;SDS011;56610;48.872;2.400;2022-11-20T08:09:30;2.92;;;2.30;;
69417;SDS011;56610;48.872;2.400;2022-11-20T08:11:55;4.93;;;2.30;;
69417;SDS011;56610;48.872;2.400;2022-11-20T08:14:39;3.75;;;1.95;;
69417;SDS011;56610;48.872;2.400;2022-11-20T08:17:05;5.72;;;2.08;;
69417;SDS011;56610;48.872;2.400;2022-11-20T08:19:31;3.65;;;2.20;;
69417;SDS011;56610;48.872;2.400;2022-11-20T08:21:57;4.65;;;2.78;;
69417;SDS011;56610;48.872;2.400;2022-11-20T08:24:22;5.93;;;2.50;;
69417;SDS011;56610;48.872;2.400;2022-11-20T08:26:48;4.57;;;2.40;;
69417;SDS011;56610;48.872;2.400;2022-11-20T08:29:13;3.55;;;2.40;;
69417;SDS011;56610;48.872;2.400;2022-11-20T08:31:39;5.28;;;2.65;;
69417;SDS011;56610;48.872;2.400;2022-11-20T08:34:05;3.95;;;2.65;;
69417;SDS011;56610;48.872;2.400;2022-11-20T08:36:32;4.72;;;2.70;;
69417;SDS011;56610;48.872;2.400;2022-11-20T08:39:00;4.20;;;2.80;;
69417;SDS011;56610;48.872;2.400;2022-11-20T08:41:25;6.50;;;2.80;;
69417;SDS011;56610;48.872;2.400;2022-11-20T08:43:56;4.28;;;2.38;;
69417;SDS011;56610;48.872;2.400;2022-11-20T08:46:30;4.60;;;3.03;;
69417;SDS011;56610;48.872;2.400;2022-11-20T08:49:07;6.95;;;3.25;;
69417;SDS011;56610;48.872;2.400;2022-11-20T08:51:39;6.90;;;3.50;;
69417;SDS011;56610;48.872;2.400;2022-11-20T08:54:06;4.40;;;3.10;;
69417;SDS011;56610;48.872;2.400;2022-11-20T08:56:32;7.15;;;3.20;;
69417;SDS011;56610;48.872;2.400;2022-11-20T08:58:58;4.93;;;3.42;;
69417;SDS011;56610;48.872;2.400;2022-11-20T09:01:24;5.43;;;3.22;;
69417;SDS011;56610;48.872;2.400;2022-11-20T09:03:51;6.55;;;3.38;;
69417;SDS011;56610;48.872;2.400;2022-11-20T09:06:16;4.10;;;3.10;;
69417;SDS011;56610;48.872;2.400;2022-11-20T09:08:42;5.30;;;3.33;;
69417;SDS011;56610;48.872;2.400;2022-11-20T09:11:11;4.72;;;3.08;;
69417;SDS011;56610;48.872;2.400;2022-11-20T09:13:37;6.43;;;3.55;;
69417;SDS011;56610;48.872;2.400;2022-11-20T09:16:07;8.15;;;3.75;;
69417;SDS011;56610;48.872;2.400;2022-11-20T09:18:33;4.95;;;2.92;;
69417;SDS011;56610;48.872;2.400;2022-11-20T09:21:04;6.55;;;3.47;;
69417;SDS011;56610;48.872;2.400;2022-11-20T09:23:31;5.63;;;3.72;;
69417;SDS011;56610;48.872;2.400;2022-11-20T09:26:01;6.75;;;4.00;;
69417;SDS011;56610;48.872;2.400;2022-11-20T09:28:32;9.77;;;3.78;;
69417;SDS011;56610;48.872;2.400;2022-11-20T09:30:58;6.38;;;3.08;;
69417;SDS011;56610;48.872;2.400;2022-11-20T09:33:24;5.80;;;3.55;;
69417;SDS011;56610;48.872;2.400;2022-11-20T09:35:50;4.40;;;2.88;;
69417;SDS011;56610;48.872;2.400;2022-11-20T09:38:20;8.85;;;3.88;;
69417;SDS011;56610;48.872;2.400;2022-11-20T09:41:05;6.22;;;3.63;;
69417;SDS011;56610;48.872;2.400;2022-11-20T09:46:35;6.20;;;3.45;;
69417;SDS011;56610;48.872;2.400;2022-11-20T09:54:21;6.25;;;3.45;;
69417;SDS011;56610;48.872;2.400;2022-11-20T09:57:01;6.82;;;3.65;;
69417;SDS011;56610;48.872;2.400;2022-11-20T09:59:35;6.85;;;3.40;;
69417;SDS011;56610;48.872;2.400;2022-11-20T10:02:30;4.72;;;2.85;;
69417;SDS011;56610;48.872;2.400;2022-11-20T10:10:31;8.05;;;3.70;;
69417;SDS011;56610;48.872;2.400;2022-11-20T10:29:59;4.35;;;3.03;;
69417;SDS011;56610;48.872;2.400;2022-11-20T10:32:31;6.90;;;3.38;;
69417;SDS011;56610;48.872;2.400;2022-11-20T10:37:59;6.35;;;3.30;;
69417;SDS011;56610;48.872;2.400;2022-11-20T10:40:38;4.03;;;3.13;;
69417;SDS011;56610;48.872;2.400;2022-11-20T10:43:14;6.38;;;3.90;;
69417;SDS011;56610;48.872;2.400;2022-11-20T10:48:19;7.25;;;3.78;;
69417;SDS011;56610;48.872;2.400;2022-11-20T10:50:49;4.45;;;3.50;;
69417;SDS011;56610;48.872;2.400;2022-11-20T10:53:24;5.95;;;3.78;;
69417;SDS011;56610;48.872;2.400;2022-11-20T11:01:42;6.78;;;3.60;;
69417;SDS011;56610;48.872;2.400;2022-11-20T11:04:17;5.13;;;3.05;;
69417;SDS011;56610;48.872;2.400;2022-11-20T11:06:48;8.10;;;3.80;;
69417;SDS011;56610;48.872;2.400;2022-11-20T11:09:22;5.18;;;2.92;;
69417;SDS011;56610;48.872;2.400;2022-11-20T11:11:57;6.97;;;3.25;;
69417;SDS011;56610;48.872;2.400;2022-11-20T11:14:22;5.03;;;3.03;;
69417;SDS011;56610;48.872;2.400;2022-11-20T11:16:54;6.03;;;2.97;;
69417;SDS011;56610;48.872;2.400;2022-11-20T11:19:22;6.00;;;2.90;;
69417;SDS011;56610;48.872;2.400;2022-11-20T11:21:50;5.03;;;2.83;;
69417;SDS011;56610;48.872;2.400;2022-11-20T11:24:21;5.25;;;2.90;;
69417;SDS011;56610;48.872;2.400;2022-11-20T11:26:56;4.57;;;2.47;;
69417;SDS011;56610;48.872;2.400;2022-11-20T11:29:34;7.43;;;3.42;;
69417;SDS011;56610;48.872;2.400;2022-11-20T11:32:07;5.72;;;3.13;;
69417;SDS011;56610;48.872;2.400;2022-11-20T11:34:36;4.07;;;2.40;;
69417;SDS011;56610;48.872;2.400;2022-11-20T11:37:02;4.65;;;2.35;;
69417;SDS011;56610;48.872;2.400;2022-11-20T11:39:33;2.35;;;1.88;;
69417;SDS011;56610;48.872;2.400;2022-11-20T11:41:59;3.53;;;1.98;;
69417;SDS011;56610;48.872;2.400;2022-11-20T11:47:17;3.42;;;1.80;;
69417;SDS011;56610;48.872;2.400;2022-11-20T11:50:00;3.30;;;1.80;;
69417;SDS011;56610;48.872;2.400;2022-11-20T11:55:47;2.38;;;1.90;;
69417;SDS011;56610;48.872;2.400;2022-11-20T12:09:37;3.13;;;1.70;;
69417;SDS011;56610;48.872;2.400;2022-11-20T12:12:18;2.45;;;1.45;;
69417;SDS011;56610;48.872;2.400;2022-11-20T12:14:47;1.42;;;1.20;;
69417;SDS011;56610;48.872;2.400;2022-11-20T12:17:17;2.08;;;1.40;;
69417;SDS011;56610;48.872;2.400;2022-11-20T12:19:48;2.97;;;1.42;;
69417;SDS011;56610;48.872;2.400;2022-11-20T12:36:42;2.75;;;1.90;;
69417;SDS011;56610;48.872;2.400;2022-11-20T12:39:35;2.40;;;1.67;;
69417;SDS011;56610;48.872;2.400;2022-11-20T13:13:03;3.47;;;2.10;;
69417;SDS011;56610;48.872;2.400;2022-11-20T13:18:27;2.78;;;2.13;;
69417;SDS011;56610;48.872;2.400;2022-11-20T13:20:54;3.00;;;2.08;;
69417;SDS011;56610;48.872;2.400;2022-11-20T13:26:16;2.90;;;1.92;;
69417;SDS011;56610;48.872;2.400;2022-11-20T13:28:45;3.25;;;2.13;;
69417;SDS011;56610;48.872;2.400;2022-11-20T13:31:24;3.15;;;2.22;;
69417;SDS011;56610;48.872;2.400;2022-11-20T13:34:00;4.78;;;3.00;;
69417;SDS011;56610;48.872;2.400;2022-11-20T13:36:32;3.40;;;2.25;;
69417;SDS011;56610;48.872;2.400;2022-11-20T13:38:59;4.20;;;2.15;;
69417;SDS011;56610;48.872;2.400;2022-11-20T13:41:27;4.57;;;2.38;;
69417;SDS011;56610;48.872;2.400;2022-11-20T13:46:43;4.43;;;2.97;;
69417;SDS011;56610;48.872;2.400;2022-11-20T13:49:16;3.42;;;2.60;;
69417;SDS011;56610;48.872;2.400;2022-11-20T13:54:59;3.15;;;2.38;;
69417;SDS011;56610;48.872;2.400;2022-11-20T14:00:30;5.03;;;2.60;;
69417;SDS011;56610;48.872;2.400;2022-11-20T14:03:01;3.60;;;2.17;;
69417;SDS011;56610;48.872;2.400;2022-11-20T14:05:31;4.38;;;2.10;;
69417;SDS011;56610;48.872;2.400;2022-11-20T14:08:06;3.63;;;2.42;;
69417;SDS011;56610;48.872;2.400;2022-11-20T14:13:17;5.80;;;2.15;;
69417;SDS011;56610;48.872;2.400;2022-11-20T14:15:44;3.92;;;2.30;;
69417;SDS011;56610;48.872;2.400;2022-11-20T14:18:11;6.47;;;2.58;;
69417;SDS011;56610;48.872;2.400;2022-11-20T14:20:44;6.93;;;2.88;;
69417;SDS011;56610;48.872;2.400;2022-11-20T14:23:10;8.05;;;2.78;;
69417;SDS011;56610;48.872;2.400;2022-11-20T14:25:36;5.80;;;2.47;;
69417;SDS011;56610;48.872;2.400;2022-11-20T14:28:10;4.10;;;2.35;;
69417;SDS011;56610;48.872;2.400;2022-11-20T14:30:47;7.15;;;3.05;;
69417;SDS011;56610;48.872;2.400;2022-11-20T14:33:13;6.75;;;2.67;;
69417;SDS011;56610;48.872;2.400;2022-11-20T14:35:43;7.57;;;2.85;;
69417;SDS011;56610;48.872;2.400;2022-11-20T14:38:14;8.45;;;3.17;;
69417;SDS011;56610;48.872;2.400;2022-11-20T14:40:43;6.03;;;2.83;;
69417;SDS011;56610;48.872;2.400;2022-11-20T14:43:19;5.95;;;2.95;;
69417;SDS011;56610;48.872;2.400;2022-11-20T14:45:55;7.20;;;2.78;;
69417;SDS011;56610;48.872;2.400;2022-11-20T14:48:28;7.57;;;3.25;;
69417;SDS011;56610;48.872;2.400;2022-11-20T14:51:08;8.75;;;3.70;;
69417;SDS011;56610;48.872;2.400;2022-11-20T14:53:35;6.78;;;2.88;;
69417;SDS011;56610;48.872;2.400;2022-11-20T14:56:01;7.22;;;3.28;;
69417;SDS011;56610;48.872;2.400;2022-11-20T14:58:34;8.32;;;2.90;;
69417;SDS011;56610;48.872;2.400;2022-11-20T15:01:01;8.20;;;2.92;;
69417;SDS011;56610;48.872;2.400;2022-11-20T15:03:40;8.45;;;2.83;;
69417;SDS011;56610;48.872;2.400;2022-11-20T15:06:10;6.20;;;3.13;;
69417;SDS011;56610;48.872;2.400;2022-11-20T15:08:37;6.80;;;3.08;;
69417;SDS011;56610;48.872;2.400;2022-11-20T15:11:03;11.05;;;3.20;;
69417;SDS011;56610;48.872;2.400;2022-11-20T15:13:41;10.20;;;3.55;;
69417;SDS011;56610;48.872;2.400;2022-11-20T15:16:17;10.57;;;3.47;;
69417;SDS011;56610;48.872;2.400;2022-11-20T15:18:44;9.68;;;3.00;;
69417;SDS011;56610;48.872;2.400;2022-11-20T15:21:12;9.93;;;3.10;;
69417;SDS011;56610;48.872;2.400;2022-11-20T15:23:39;6.78;;;2.50;;
69417;SDS011;56610;48.872;2.400;2022-11-20T15:26:05;8.05;;;3.10;;
69417;SDS011;56610;48.872;2.400;2022-11-20T15:28:36;8.55;;;3.25;;
69417;SDS011;56610;48.872;2.400;2022-11-20T15:31:05;8.30;;;3.00;;
69417;SDS011;56610;48.872;2.400;2022-11-20T15:33:31;10.48;;;3.13;;
69417;SDS011;56610;48.872;2.400;2022-11-20T15:35:58;10.38;;;3.10;;
69417;SDS011;56610;48.872;2.400;2022-11-20T15:38:24;8.43;;;3.08;;
69417;SDS011;56610;48.872;2.400;2022-11-20T15:40:50;9.23;;;3.63;;
69417;SDS011;56610;48.872;2.400;2022-11-20T15:43:18;10.48;;;3.58;;
69417;SDS011;56610;48.872;2.400;2022-11-20T15:45:45;11.43;;;3.42;;
69417;SDS011;56610;48.872;2.400;2022-11-20T15:48:17;9.10;;;3.30;;
69417;SDS011;56610;48.872;2.400;2022-11-20T15:53:17;7.53;;;3.17;;
69417;SDS011;56610;48.872;2.400;2022-11-20T15:55:43;7.57;;;2.90;;
69417;SDS011;56610;48.872;2.400;2022-11-20T15:58:09;7.68;;;2.90;;
69417;SDS011;56610;48.872;2.400;2022-11-20T16:00:34;8.73;;;2.95;;
69417;SDS011;56610;48.872;2.400;2022-11-20T16:03:00;7.53;;;2.75;;
69417;SDS011;56610;48.872;2.400;2022-11-20T16:05:30;6.95;;;2.70;;
69417;SDS011;56610;48.872;2.400;2022-11-20T16:07:58;6.82;;;2.42;;
69417;SDS011;56610;48.872;2.400;2022-11-20T16:10:27;11.20;;;3.10;;
69417;SDS011;56610;48.872;2.400;2022-11-20T16:12:56;7.03;;;3.13;;
69417;SDS011;56610;48.872;2.400;2022-11-20T16:15:40;5.28;;;2.47;;
69417;SDS011;56610;48.872;2.400;2022-11-20T16:18:12;4.97;;;2.38;;
69417;SDS011;56610;48.872;2.400;2022-11-20T16:20:41;5.60;;;2.60;;
69417;SDS011;56610;48.872;2.400;2022-11-20T16:23:07;5.47;;;1.88;;
69417;SDS011;56610;48.872;2.400;2022-11-20T16:25:57;3.58;;;2.00;;
69417;SDS011;56610;48.872;2.400;2022-11-20T16:28:22;4.25;;;2.25;;
69417;SDS011;56610;48.872;2.400;2022-11-20T16:30:48;5.45;;;1.90;;
69417;SDS011;56610;48.872;2.400;2022-11-20T16:33:14;4.20;;;2.38;;
69417;SDS011;56610;48.872;2.400;2022-11-20T16:35:44;5.05;;;2.38;;
69417;SDS011;56610;48.872;2.400;2022-11-20T16:38:10;6.18;;;2.40;;
69417;SDS011;56610;48.872;2.400;2022-11-20T16:40:35;6.95;;;2.33;;
69417;SDS011;56610;48.872;2.400;2022-11-20T16:43:06;6.13;;;2.58;;
69417;SDS011;56610;48.872;2.400;2022-11-20T16:45:34;6.40;;;2.50;;
69417;SDS011;56610;48.872;2.400;2022-11-20T16:48:04;8.50;;;2.50;;
69417;SDS011;56610;48.872;2.400;2022-11-20T16:50:30;7.13;;;2.60;;
69417;SDS011;56610;48.872;2.400;2022-11-20T16:52:55;8.43;;;2.97;;
69417;SDS011;56610;48.872;2.400;2022-11-20T16:55:21;8.15;;;3.05;;
69417;SDS011;56610;48.872;2.400;2022-11-20T16:57:50;6.68;;;2.45;;
69417;SDS011;56610;48.872;2.400;2022-11-20T17:00:17;6.18;;;2.60;;
69417;SDS011;56610;48.872;2.400;2022-11-20T17:02:42;6.28;;;2.58;;
69417;SDS011;56610;48.872;2.400;2022-11-20T17:05:08;8.82;;;3.15;;
69417;SDS011;56610;48.872;2.400;2022-11-20T17:07:34;5.95;;;2.70;;
69417;SDS011;56610;48.872;2.400;2022-11-20T17:09:59;7.18;;;2.80;;
69417;SDS011;56610;48.872;2.400;2022-11-20T17:12:28;7.13;;;2.78;;
69417;SDS011;56610;48.872;2.400;2022-11-20T17:14:57;6.78;;;3.17;;
69417;SDS011;56610;48.872;2.400;2022-11-20T17:17:23;5.95;;;2.83;;
69417;SDS011;56610;48.872;2.400;2022-11-20T17:19:51;6.78;;;3.08;;
69417;SDS011;56610;48.872;2.400;2022-11-20T17:22:17;7.18;;;2.72;;
69417;SDS011;56610;48.872;2.400;2022-11-20T17:24:42;8.65;;;3.47;;